createdAt,value
2022-09-06T00:00:13.158Z,3.70
2022-09-06T00:02:41.614Z,3.70
2022-09-06T00:05:10.703Z,3.60
2022-09-06T00:07:37.955Z,3.70
2022-09-06T00:10:06.785Z,3.60
2022-09-06T00:12:34.643Z,3.60
2022-09-06T00:15:02.433Z,3.60
2022-09-06T00:17:33.473Z,3.70
2022-09-06T00:20:00.896Z,3.70
2022-09-06T00:22:28.645Z,3.70
2022-09-06T00:24:56.035Z,3.70
2022-09-06T00:27:23.585Z,3.50
2022-09-06T00:29:50.986Z,3.50
2022-09-06T00:32:18.157Z,3.50
2022-09-06T00:34:45.303Z,3.50
2022-09-06T00:37:12.698Z,3.50
2022-09-06T00:39:40.270Z,3.50
2022-09-06T00:42:12.123Z,3.40
2022-09-06T00:44:40.486Z,3.30
2022-09-06T00:47:09.139Z,3.30
2022-09-06T00:49:47.260Z,3.20
2022-09-06T00:52:17.001Z,3.30
2022-09-06T00:54:44.879Z,3.30
2022-09-06T00:57:13.763Z,3.30
2022-09-06T00:59:42.941Z,3.40
2022-09-06T01:02:11.435Z,3.30
2022-09-06T01:04:42.038Z,3.30
2022-09-06T01:07:25.185Z,3.30
2022-09-06T01:10:11.183Z,3.20
2022-09-06T01:13:23.659Z,3.20
2022-09-06T01:15:56.770Z,3.20
2022-09-06T01:19:06.455Z,3.20
2022-09-06T01:21:50.600Z,3.30
2022-09-06T01:24:48.121Z,3.20
2022-09-06T01:27:30.553Z,3.20
2022-09-06T01:30:13.460Z,3.20
2022-09-06T01:33:05.502Z,3.10
2022-09-06T01:35:47.044Z,3.10
2022-09-06T01:38:15.379Z,3.20
2022-09-06T01:40:42.743Z,3.20
2022-09-06T01:43:14.223Z,3.10
2022-09-06T01:45:57.320Z,3.10
2022-09-06T01:48:53.861Z,3.10
2022-09-06T01:51:43.268Z,3.10
2022-09-06T01:54:16.600Z,3.10
2022-09-06T01:57:19.426Z,3.10
2022-09-06T02:00:15.482Z,3.10
2022-09-06T02:03:37.153Z,3.10
2022-09-06T02:06:14.995Z,3.00
2022-09-06T02:08:49.466Z,3.10
2022-09-06T02:11:17.437Z,3.10
2022-09-06T02:13:57.801Z,3.10
2022-09-06T02:16:27.938Z,3.10
2022-09-06T02:19:09.240Z,3.10
2022-09-06T02:21:42.319Z,3.10
2022-09-06T02:24:13.826Z,3.10
2022-09-06T02:26:44.080Z,3.00
2022-09-06T02:29:12.085Z,3.10
2022-09-06T02:31:47.767Z,3.10
2022-09-06T02:34:18.263Z,3.10
2022-09-06T02:36:46.441Z,3.10
2022-09-06T02:39:14.043Z,3.10
2022-09-06T02:41:45.643Z,3.10
2022-09-06T02:44:12.978Z,3.00
2022-09-06T02:46:40.733Z,3.00
2022-09-06T02:49:08.425Z,3.00
2022-09-06T02:51:39.579Z,3.00
2022-09-06T02:54:07.162Z,3.00
2022-09-06T02:56:36.702Z,3.00
2022-09-06T02:59:07.559Z,3.00
2022-09-06T03:01:35.283Z,3.10
2022-09-06T03:04:03.267Z,3.10
2022-09-06T03:06:31.253Z,3.20
2022-09-06T03:09:00.366Z,3.20
2022-09-06T03:11:28.559Z,3.20
2022-09-06T03:13:56.511Z,3.20
2022-09-06T03:16:26.680Z,3.20
2022-09-06T03:18:54.459Z,3.20
2022-09-06T03:21:21.955Z,3.20
2022-09-06T03:23:49.749Z,3.20
2022-09-06T03:26:17.326Z,3.20
2022-09-06T03:28:44.652Z,3.30
2022-09-06T03:31:12.157Z,3.40
2022-09-06T03:33:39.549Z,3.40
2022-09-06T03:36:07.279Z,3.50
2022-09-06T03:38:34.758Z,3.50
2022-09-06T03:41:02.395Z,3.60
2022-09-06T03:43:30.439Z,3.60
2022-09-06T03:45:58.267Z,3.60
2022-09-06T03:48:29.546Z,3.50
2022-09-06T03:50:58.709Z,3.50
2022-09-06T03:53:27.800Z,3.50
2022-09-06T03:55:57.790Z,3.50
2022-09-06T03:58:29.061Z,3.60
2022-09-06T04:01:11.083Z,3.60
2022-09-06T04:03:39.408Z,3.70
2022-09-06T04:06:08.001Z,3.70
2022-09-06T04:08:37.088Z,3.60
2022-09-06T04:11:05.839Z,3.60
2022-09-06T04:13:34.346Z,3.60
2022-09-06T04:16:02.244Z,3.60
2022-09-06T04:18:29.762Z,3.60
2022-09-06T04:20:57.867Z,3.60
2022-09-06T04:23:27.171Z,3.60
2022-09-06T04:25:56.625Z,3.70
2022-09-06T04:28:25.197Z,3.70
2022-09-06T04:31:04.294Z,3.80
2022-09-06T04:33:34.376Z,3.80
2022-09-06T04:36:05.385Z,3.80
2022-09-06T04:38:37.561Z,3.90
2022-09-06T04:41:06.691Z,4.00
2022-09-06T04:43:33.933Z,4.00
2022-09-06T04:46:14.746Z,4.10
2022-09-06T04:48:42.254Z,4.10
2022-09-06T04:51:09.903Z,4.20
2022-09-06T04:53:37.426Z,4.30
2022-09-06T04:56:05.359Z,4.20
2022-09-06T04:58:33.137Z,4.30
2022-09-06T05:01:00.598Z,4.40
2022-09-06T05:03:28.156Z,4.40
2022-09-06T05:06:06.216Z,4.50
2022-09-06T05:08:33.581Z,4.50
2022-09-06T05:11:00.920Z,4.50
2022-09-06T05:13:28.191Z,4.70
2022-09-06T05:15:55.731Z,4.70
2022-09-06T05:18:23.302Z,4.80
2022-09-06T05:20:54.749Z,4.90
2022-09-06T05:23:22.843Z,5.00
2022-09-06T05:25:50.684Z,5.00
2022-09-06T05:28:18.404Z,5.10
2022-09-06T05:30:46.377Z,5.10
2022-09-06T05:33:19.304Z,5.20
2022-09-06T05:35:46.886Z,5.30
2022-09-06T05:38:14.444Z,5.40
2022-09-06T05:40:42.273Z,5.50
2022-09-06T05:43:09.569Z,5.80
2022-09-06T05:45:37.176Z,6.70
2022-09-06T05:48:05.005Z,7.60
2022-09-06T05:50:32.475Z,8.20
2022-09-06T05:53:00.003Z,9.40
2022-09-06T05:55:27.403Z,11.60
2022-09-06T05:57:54.794Z,13.90
2022-09-06T06:00:22.265Z,16.10
2022-09-06T06:02:50.680Z,17.90
2022-09-06T06:05:18.135Z,18.80
2022-09-06T06:07:45.563Z,18.60
2022-09-06T06:10:13.317Z,20.00
2022-09-06T06:12:40.706Z,21.80
2022-09-06T06:15:08.523Z,22.60
2022-09-06T06:17:35.902Z,23.20
2022-09-06T06:20:04.003Z,22.20
2022-09-06T06:22:31.339Z,21.20
2022-09-06T06:24:58.789Z,20.60
2022-09-06T06:27:26.373Z,18.90
2022-09-06T06:29:54.393Z,17.00
2022-09-06T06:32:21.804Z,15.90
2022-09-06T06:34:49.122Z,15.00
2022-09-06T06:37:16.684Z,14.50
2022-09-06T06:39:44.229Z,13.70
2022-09-06T06:42:11.883Z,13.10
2022-09-06T06:44:39.160Z,13.00
2022-09-06T06:47:07.353Z,13.10
2022-09-06T06:49:35.189Z,13.50
2022-09-06T06:52:02.641Z,13.50
2022-09-06T06:54:30.265Z,13.30
2022-09-06T06:56:57.748Z,13.00
2022-09-06T06:59:25.265Z,12.90
2022-09-06T07:01:53.441Z,13.10
2022-09-06T07:04:20.869Z,13.10
2022-09-06T07:12:31.968Z,14.40
2022-09-06T07:14:59.571Z,14.50
2022-09-06T07:17:27.012Z,14.20
2022-09-06T07:22:42.612Z,14.30
2022-09-06T07:25:13.358Z,15.10
2022-09-06T07:30:16.220Z,17.70
2022-09-06T07:32:43.687Z,19.80
2022-09-06T07:35:12.655Z,21.00
2022-09-06T07:37:40.473Z,19.90
2022-09-06T07:40:08.742Z,21.90
2022-09-06T07:42:36.873Z,24.30
2022-09-06T07:45:05.506Z,25.80
2022-09-06T07:53:11.864Z,28.20
2022-09-06T07:55:43.114Z,28.40
2022-09-06T07:58:11.235Z,29.60
2022-09-06T08:00:41.415Z,30.70
2022-09-06T08:03:10.379Z,31.20
2022-09-06T08:11:14.137Z,30.10
2022-09-06T08:13:42.691Z,27.20
2022-09-06T08:16:11.697Z,24.60
2022-09-06T08:18:40.139Z,23.60
2022-09-06T08:21:12.608Z,22.60
2022-09-06T08:23:52.839Z,22.20
2022-09-06T08:26:22.681Z,20.70
2022-09-06T08:28:55.196Z,19.40
2022-09-06T08:31:23.220Z,18.90
2022-09-06T08:33:54.685Z,18.60
2022-09-06T08:36:22.875Z,20.10
2022-09-06T08:38:50.586Z,22.10
2022-09-06T08:41:24.024Z,22.70
2022-09-06T08:46:56.226Z,25.30
2022-09-06T08:49:37.021Z,27.30
2022-09-06T08:52:13.181Z,26.80
2022-09-06T08:54:54.815Z,28.60
2022-09-06T08:57:28.528Z,28.00
2022-09-06T09:00:02.114Z,27.10
2022-09-06T09:02:42.380Z,27.20
2022-09-06T09:05:23.201Z,26.70
2022-09-06T09:07:55.827Z,26.40
2022-09-06T09:10:48.902Z,25.60
2022-09-06T09:13:41.563Z,24.70
2022-09-06T09:16:09.748Z,24.00
2022-09-06T09:18:40.709Z,23.00
2022-09-06T09:21:10.122Z,22.00
2022-09-06T09:23:37.529Z,21.90
2022-09-06T09:26:14.573Z,21.70
2022-09-06T09:29:02.431Z,21.40
2022-09-06T09:31:42.811Z,21.00
2022-09-06T09:34:15.574Z,20.90
2022-09-06T09:39:39.582Z,20.60
2022-09-06T09:42:09.955Z,20.80
2022-09-06T09:44:44.523Z,20.80
2022-09-06T09:47:30.839Z,20.60
2022-09-06T09:49:59.119Z,20.70
2022-09-06T09:52:29.693Z,20.40
2022-09-06T09:55:05.622Z,20.60
2022-09-06T09:57:46.748Z,20.60
2022-09-06T10:00:15.106Z,20.40
2022-09-06T10:02:43.504Z,20.50
2022-09-06T10:05:16.360Z,20.70
2022-09-06T10:07:53.500Z,20.50
2022-09-06T10:10:41.049Z,20.70
2022-09-06T10:13:22.418Z,20.70
2022-09-06T10:15:52.099Z,20.70
2022-09-06T10:18:44.406Z,20.80
2022-09-06T10:21:16.359Z,20.30
2022-09-06T10:26:47.591Z,20.50
2022-09-06T10:29:25.732Z,20.20
2022-09-06T10:32:07.159Z,20.50
2022-09-06T10:35:09.798Z,20.40
2022-09-06T10:37:49.230Z,20.40
2022-09-06T10:40:28.578Z,20.70
2022-09-06T10:42:59.739Z,20.60
2022-09-06T10:45:59.207Z,20.60
2022-09-06T10:48:30.287Z,20.90
2022-09-06T10:51:34.820Z,20.80
2022-09-06T10:54:12.062Z,20.90
2022-09-06T10:56:45.001Z,20.50
2022-09-06T10:59:35.829Z,20.60
2022-09-06T11:02:32.643Z,20.60
2022-09-06T11:10:56.132Z,20.50
2022-09-06T11:13:27.864Z,20.80
2022-09-06T11:16:06.073Z,20.70
2022-09-06T11:18:59.632Z,20.80
2022-09-06T11:21:48.406Z,20.90
2022-09-06T11:24:29.536Z,20.50
2022-09-06T11:27:17.171Z,20.90
2022-09-06T11:29:47.512Z,20.90
2022-09-06T11:32:49.173Z,20.90
2022-09-06T11:35:33.049Z,20.70
2022-09-06T11:38:20.874Z,20.80
2022-09-06T11:41:15.598Z,20.70
2022-09-06T11:43:45.254Z,20.90
2022-09-06T11:46:35.883Z,21.10
2022-09-06T11:49:16.148Z,21.30
2022-09-06T11:51:45.428Z,21.10
2022-09-06T11:54:27.473Z,20.90
2022-09-06T11:57:00.587Z,21.10
2022-09-06T11:59:39.503Z,21.40
2022-09-06T12:02:28.653Z,21.60
2022-09-06T12:05:04.251Z,21.40
2022-09-06T12:07:32.925Z,21.60
2022-09-06T12:10:32.369Z,21.30
2022-09-06T12:12:59.701Z,21.30
2022-09-06T12:15:44.614Z,20.80
2022-09-06T12:18:54.105Z,21.00
2022-09-06T12:21:56.802Z,20.80
2022-09-06T12:24:36.924Z,21.10
2022-09-06T12:27:18.085Z,21.10
2022-09-06T12:30:01.999Z,21.50
2022-09-06T12:32:37.128Z,21.30
2022-09-06T12:38:03.804Z,21.00
2022-09-06T12:40:41.142Z,20.90
2022-09-06T12:43:12.000Z,20.90
2022-09-06T12:45:49.082Z,20.50
2022-09-06T12:48:31.204Z,20.30
2022-09-06T12:51:16.565Z,20.30
2022-09-06T12:54:06.991Z,20.30
2022-09-06T12:56:34.863Z,20.70
2022-09-06T12:59:29.905Z,21.00
2022-09-06T13:02:03.110Z,20.90
2022-09-06T13:04:41.639Z,21.00
2022-09-06T13:07:18.923Z,21.20
2022-09-06T13:09:49.529Z,21.20
2022-09-06T13:12:37.162Z,21.20
2022-09-06T13:15:22.505Z,21.20
2022-09-06T13:17:51.050Z,21.30
2022-09-06T13:20:29.712Z,21.10
2022-09-06T13:23:10.244Z,20.90
2022-09-06T13:25:51.834Z,20.70
2022-09-06T13:28:33.704Z,20.70
2022-09-06T13:31:18.865Z,20.50
2022-09-06T13:33:59.185Z,20.70
2022-09-06T13:36:31.385Z,20.70
2022-09-06T13:39:00.709Z,20.80
2022-09-06T13:41:28.264Z,20.80
2022-09-06T13:44:06.448Z,20.70
2022-09-06T13:46:41.155Z,20.60
2022-09-06T13:49:09.043Z,20.70
2022-09-06T13:51:39.724Z,21.10
2022-09-06T13:54:11.626Z,21.20
2022-09-06T13:56:41.329Z,21.10
2022-09-06T13:59:13.099Z,21.20
2022-09-06T14:01:42.465Z,21.00
2022-09-06T14:04:13.263Z,20.80
2022-09-06T14:06:40.915Z,20.50
2022-09-06T14:09:09.425Z,20.40
2022-09-06T14:11:37.327Z,20.50
2022-09-06T14:14:06.186Z,20.40
2022-09-06T14:16:35.064Z,20.40
2022-09-06T14:19:04.265Z,20.50
2022-09-06T14:21:32.323Z,20.60
2022-09-06T14:24:03.834Z,20.50
2022-09-06T14:26:32.044Z,20.60
2022-09-06T14:28:59.691Z,20.60
2022-09-06T14:31:29.440Z,20.50
2022-09-06T14:33:57.724Z,20.60
2022-09-06T14:36:29.741Z,20.40
2022-09-06T14:39:00.202Z,20.30
2022-09-06T14:41:28.965Z,20.10
2022-09-06T14:43:57.948Z,20.20
2022-09-06T14:46:27.414Z,20.00
2022-09-06T14:49:10.415Z,19.70
2022-09-06T14:51:40.179Z,19.60
2022-09-06T14:54:11.635Z,19.50
2022-09-06T14:56:42.355Z,19.50
2022-09-06T14:59:10.693Z,19.60
2022-09-06T15:01:39.765Z,19.80
2022-09-06T15:04:09.772Z,19.70
2022-09-06T15:06:40.445Z,19.90
2022-09-06T15:09:08.526Z,20.10
2022-09-06T15:11:37.346Z,19.80
2022-09-06T15:14:08.023Z,19.70
2022-09-06T15:16:36.376Z,19.70
2022-09-06T15:19:05.262Z,19.80
2022-09-06T15:21:33.188Z,19.80
2022-09-06T15:24:02.382Z,19.60
2022-09-06T15:26:35.043Z,19.50
2022-09-06T15:29:02.863Z,19.50
2022-09-06T15:31:34.250Z,19.40
2022-09-06T15:34:03.016Z,19.20
2022-09-06T15:36:35.210Z,19.20
2022-09-06T15:39:04.809Z,19.10
2022-09-06T15:41:36.225Z,19.00
2022-09-06T15:44:18.176Z,19.00
2022-09-06T15:46:57.968Z,19.10
2022-09-06T15:49:28.782Z,19.10
2022-09-06T15:51:59.038Z,19.10
2022-09-06T15:54:45.580Z,19.10
2022-09-06T15:57:15.246Z,19.10
2022-09-06T15:59:43.196Z,19.10
2022-09-06T16:02:11.000Z,19.00
2022-09-06T16:04:39.648Z,18.90
2022-09-06T16:07:07.815Z,18.80
2022-09-06T16:09:35.433Z,18.70
2022-09-06T16:12:03.077Z,18.60
2022-09-06T16:14:31.246Z,18.50
2022-09-06T16:17:01.827Z,18.40
2022-09-06T16:19:32.067Z,18.40
2022-09-06T16:22:03.132Z,18.30
2022-09-06T16:24:33.037Z,18.20
2022-09-06T16:27:06.030Z,18.10
2022-09-06T16:29:37.567Z,18.10
2022-09-06T16:32:08.814Z,17.90
2022-09-06T16:34:39.266Z,17.80
2022-09-06T16:37:11.588Z,17.70
2022-09-06T16:39:39.783Z,17.60
2022-09-06T16:42:08.192Z,17.40
2022-09-06T16:44:36.202Z,17.40
2022-09-06T16:47:04.623Z,17.30
2022-09-06T16:49:32.274Z,17.20
2022-09-06T16:52:00.255Z,17.20
2022-09-06T16:54:27.635Z,17.20
2022-09-06T16:56:55.974Z,17.00
2022-09-06T16:59:23.294Z,16.80
2022-09-06T17:01:51.834Z,16.80
2022-09-06T17:04:19.539Z,16.20
2022-09-06T17:06:47.220Z,16.00
2022-09-06T17:09:18.238Z,15.70
2022-09-06T17:11:47.894Z,15.50
2022-09-06T17:14:15.479Z,15.40
2022-09-06T17:17:02.168Z,15.20
2022-09-06T17:19:30.104Z,15.10
2022-09-06T17:21:58.275Z,14.90
2022-09-06T17:24:27.302Z,14.70
2022-09-06T17:26:55.197Z,14.50
2022-09-06T17:29:27.562Z,14.30
2022-09-06T17:31:59.714Z,14.10
2022-09-06T17:34:27.634Z,13.90
2022-09-06T17:36:55.344Z,13.90
2022-09-06T17:39:31.391Z,13.80
2022-09-06T17:41:59.443Z,13.70
2022-09-06T17:44:28.481Z,13.60
2022-09-06T17:47:14.138Z,13.60
2022-09-06T17:49:43.117Z,13.40
2022-09-06T17:52:12.172Z,13.30
2022-09-06T17:54:39.738Z,13.10
2022-09-06T17:57:07.506Z,13.00
2022-09-06T17:59:36.007Z,12.90
2022-09-06T18:02:05.094Z,12.80
2022-09-06T18:04:33.654Z,12.70
2022-09-06T18:07:01.302Z,12.50
2022-09-06T18:09:29.054Z,12.50
2022-09-06T18:11:57.177Z,12.40
2022-09-06T18:14:24.650Z,12.30
2022-09-06T18:16:52.798Z,12.20
2022-09-06T18:19:21.205Z,12.10
2022-09-06T18:21:49.107Z,11.90
2022-09-06T18:24:17.537Z,11.70
2022-09-06T18:26:45.157Z,11.50
2022-09-06T18:29:15.060Z,11.30
2022-09-06T18:31:43.672Z,11.20
2022-09-06T18:34:11.513Z,11.10
2022-09-06T18:36:39.632Z,11.10
2022-09-06T18:39:07.574Z,11.10
2022-09-06T18:41:54.192Z,11.10
2022-09-06T18:44:22.453Z,11.00
2022-09-06T18:46:50.088Z,10.80
2022-09-06T18:49:17.894Z,10.70
2022-09-06T18:51:45.972Z,10.50
2022-09-06T18:54:14.210Z,10.30
2022-09-06T18:56:42.857Z,10.20
2022-09-06T18:59:10.972Z,10.20
2022-09-06T19:01:39.029Z,10.10
2022-09-06T19:04:08.944Z,10.10
2022-09-06T19:06:41.140Z,10.20
2022-09-06T19:09:11.779Z,10.30
2022-09-06T19:11:43.043Z,10.20
2022-09-06T19:14:10.414Z,10.20
2022-09-06T19:16:38.141Z,10.00
2022-09-06T19:19:07.964Z,9.80
2022-09-06T19:21:41.473Z,9.50
2022-09-06T19:24:13.573Z,9.50
2022-09-06T19:26:44.279Z,9.30
2022-09-06T19:29:15.084Z,9.10
2022-09-06T19:31:43.841Z,9.10
2022-09-06T19:34:12.540Z,9.00
2022-09-06T19:36:40.271Z,8.90
2022-09-06T19:39:10.745Z,8.80
2022-09-06T19:41:40.209Z,8.80
2022-09-06T19:44:10.322Z,8.70
2022-09-06T19:46:40.106Z,8.60
2022-09-06T19:49:09.875Z,8.50
2022-09-06T19:51:37.750Z,8.30
2022-09-06T19:54:05.879Z,8.30
2022-09-06T19:56:35.126Z,8.30
2022-09-06T19:59:05.644Z,8.20
2022-09-06T20:01:35.517Z,8.10
2022-09-06T20:04:04.723Z,8.00
2022-09-06T20:06:32.280Z,7.90
2022-09-06T20:09:00.798Z,7.90
2022-09-06T20:11:31.593Z,7.90
2022-09-06T20:14:00.616Z,7.90
2022-09-06T20:16:28.798Z,7.80
2022-09-06T20:18:56.687Z,7.70
2022-09-06T20:21:24.118Z,7.60
2022-09-06T20:23:54.024Z,7.50
2022-09-06T20:26:23.970Z,7.50
2022-09-06T20:28:56.383Z,7.40
2022-09-06T20:31:24.864Z,7.40
2022-09-06T20:33:52.758Z,7.30
2022-09-06T20:36:20.911Z,7.30
2022-09-06T20:38:49.162Z,7.30
2022-09-06T20:41:23.073Z,7.20
2022-09-06T20:43:55.430Z,7.10
2022-09-06T20:46:26.052Z,7.10
2022-09-06T20:48:53.809Z,7.00
2022-09-06T20:51:23.531Z,7.10
2022-09-06T20:53:59.707Z,7.00
2022-09-06T20:56:33.810Z,6.90
2022-09-06T20:59:04.607Z,6.90
2022-09-06T21:01:35.962Z,6.80
2022-09-06T21:04:06.707Z,6.80
2022-09-06T21:06:37.401Z,6.80
2022-09-06T21:09:13.556Z,6.90
2022-09-06T21:11:41.773Z,6.80
2022-09-06T21:14:09.929Z,6.90
2022-09-06T21:16:38.898Z,6.90
2022-09-06T21:19:09.970Z,6.80
2022-09-06T21:21:38.185Z,6.80
2022-09-06T21:24:07.072Z,6.80
2022-09-06T21:26:35.802Z,6.90
2022-09-06T21:29:04.305Z,6.90
2022-09-06T21:31:34.577Z,7.00
2022-09-06T21:34:06.413Z,7.00
2022-09-06T21:36:37.666Z,7.00
2022-09-06T21:39:10.178Z,7.00
2022-09-06T21:41:39.465Z,7.00
2022-09-06T21:44:08.246Z,7.10
2022-09-06T21:46:37.888Z,7.10
2022-09-06T21:49:14.505Z,7.10
2022-09-06T21:51:42.718Z,7.00
2022-09-06T21:54:10.525Z,7.00
2022-09-06T21:56:39.635Z,6.90
2022-09-06T21:59:07.450Z,6.70
2022-09-06T22:01:37.164Z,6.60
2022-09-06T22:04:05.044Z,6.60
2022-09-06T22:06:34.142Z,6.60
2022-09-06T22:09:04.921Z,6.50
2022-09-06T22:11:35.183Z,6.60
2022-09-06T22:14:06.788Z,6.50
2022-09-06T22:16:37.533Z,6.40
2022-09-06T22:19:06.099Z,6.30
2022-09-06T22:21:34.217Z,6.20
2022-09-06T22:24:07.855Z,6.20
2022-09-06T22:26:37.185Z,6.20
2022-09-06T22:29:08.175Z,6.10
2022-09-06T22:31:36.484Z,6.10
2022-09-06T22:34:04.878Z,6.10
2022-09-06T22:36:32.556Z,6.00
2022-09-06T22:39:00.164Z,6.00
2022-09-06T22:41:30.676Z,6.20
2022-09-06T22:44:00.898Z,6.20
2022-09-06T22:46:29.159Z,6.00
2022-09-06T22:48:58.964Z,6.10
2022-09-06T22:51:26.465Z,6.20
2022-09-06T22:53:53.707Z,6.20
2022-09-06T22:56:21.371Z,6.10
2022-09-06T22:58:48.886Z,6.00
2022-09-06T23:01:18.606Z,6.00
2022-09-06T23:03:48.250Z,5.90
2022-09-06T23:06:15.826Z,5.80
2022-09-06T23:08:43.485Z,5.80
2022-09-06T23:11:16.702Z,5.80
2022-09-06T23:13:44.832Z,5.80
2022-09-06T23:16:22.604Z,5.70
2022-09-06T23:18:53.180Z,5.70
2022-09-06T23:21:23.868Z,5.50
2022-09-06T23:23:53.244Z,5.30
2022-09-06T23:26:24.964Z,5.20
2022-09-06T23:28:56.847Z,5.20
2022-09-06T23:31:26.626Z,5.10
2022-09-06T23:33:58.221Z,5.10
2022-09-06T23:36:26.129Z,5.10
2022-09-06T23:38:53.738Z,5.10
2022-09-06T23:41:20.884Z,5.00
2022-09-06T23:43:48.228Z,5.00
2022-09-06T23:46:16.088Z,4.90
2022-09-06T23:48:43.941Z,5.00
2022-09-06T23:51:12.823Z,4.90
2022-09-06T23:53:41.108Z,4.90
2022-09-06T23:56:09.026Z,4.80
2022-09-06T23:58:36.758Z,4.70
